createdAt,value
2022-10-02T00:00:14.628Z,6.53
2022-10-02T00:02:49.786Z,6.40
2022-10-02T00:05:49.811Z,6.30
2022-10-02T00:08:37.264Z,6.03
2022-10-02T00:11:17.007Z,5.67
2022-10-02T00:13:58.461Z,5.50
2022-10-02T00:16:42.110Z,5.70
2022-10-02T00:19:12.689Z,5.13
2022-10-02T00:22:01.584Z,4.63
2022-10-02T00:25:12.139Z,4.93
2022-10-02T00:28:16.597Z,4.53
2022-10-02T00:31:36.543Z,4.57
2022-10-02T00:34:44.995Z,4.53
2022-10-02T00:38:06.166Z,5.00
2022-10-02T00:41:03.760Z,4.33
2022-10-02T00:44:16.486Z,5.13
2022-10-02T00:47:19.173Z,5.17
2022-10-02T00:50:40.132Z,5.70
2022-10-02T00:53:39.181Z,5.50
2022-10-02T00:56:57.266Z,5.80
2022-10-02T01:02:41.719Z,6.33
2022-10-02T01:05:10.679Z,5.97
2022-10-02T01:07:43.372Z,5.90
2022-10-02T01:12:57.565Z,6.00
2022-10-02T01:15:44.264Z,5.97
2022-10-02T01:18:15.362Z,5.93
2022-10-02T01:20:49.729Z,5.33
2022-10-02T01:24:00.372Z,4.80
2022-10-02T01:26:27.846Z,4.60
2022-10-02T01:28:55.427Z,4.53
2022-10-02T01:31:24.899Z,4.40
2022-10-02T01:33:53.432Z,3.67
2022-10-02T01:36:22.431Z,3.80
2022-10-02T01:38:52.552Z,3.50
2022-10-02T01:41:20.558Z,3.30
2022-10-02T01:44:01.470Z,3.53
2022-10-02T01:46:37.976Z,3.50
2022-10-02T01:49:27.445Z,3.50
2022-10-02T01:52:22.900Z,3.33
2022-10-02T01:55:02.217Z,3.57
2022-10-02T01:58:00.204Z,3.83
2022-10-02T02:00:45.806Z,3.77
2022-10-02T02:03:39.799Z,3.87
2022-10-02T02:06:39.111Z,4.30
2022-10-02T02:09:15.219Z,3.90
2022-10-02T02:11:59.534Z,3.90
2022-10-02T02:14:33.756Z,3.67
2022-10-02T02:17:19.418Z,3.80
2022-10-02T02:20:16.018Z,3.57
2022-10-02T02:22:51.798Z,4.20
2022-10-02T02:25:28.423Z,3.87
2022-10-02T02:28:06.734Z,4.00
2022-10-02T02:30:38.788Z,3.43
2022-10-02T02:33:12.601Z,3.87
2022-10-02T02:35:45.513Z,3.37
2022-10-02T02:38:25.844Z,3.00
2022-10-02T02:40:56.685Z,3.13
2022-10-02T02:43:38.776Z,2.97
2022-10-02T02:46:27.352Z,3.13
2022-10-02T02:49:12.453Z,3.07
2022-10-02T02:51:44.270Z,2.83
2022-10-02T02:54:24.445Z,3.10
2022-10-02T02:56:53.707Z,2.87
2022-10-02T02:59:28.013Z,2.97
2022-10-02T03:01:55.771Z,3.03
2022-10-02T03:04:23.363Z,2.70
2022-10-02T03:06:58.888Z,2.53
2022-10-02T03:09:28.852Z,3.00
2022-10-02T03:12:14.254Z,2.17
2022-10-02T03:15:12.031Z,2.03
2022-10-02T03:18:18.221Z,1.97
2022-10-02T03:21:18.658Z,1.57
2022-10-02T03:24:17.059Z,1.63
2022-10-02T03:26:56.342Z,1.70
2022-10-02T03:29:43.923Z,1.43
2022-10-02T03:32:15.448Z,1.47
2022-10-02T03:34:42.887Z,1.30
2022-10-02T03:37:10.424Z,1.20
2022-10-02T03:39:43.765Z,1.30
2022-10-02T03:42:16.014Z,1.50
2022-10-02T03:44:44.102Z,1.20
2022-10-02T03:47:11.626Z,1.53
2022-10-02T03:49:39.615Z,2.33
2022-10-02T03:52:07.206Z,2.77
2022-10-02T03:54:36.462Z,2.23
2022-10-02T03:57:15.393Z,1.23
2022-10-02T04:00:07.340Z,1.47
2022-10-02T04:02:57.654Z,1.23
2022-10-02T04:06:21.697Z,1.10
2022-10-02T04:09:09.235Z,1.33
2022-10-02T04:12:19.579Z,1.33
2022-10-02T04:15:14.360Z,1.13
2022-10-02T04:17:58.884Z,2.50
2022-10-02T04:20:49.429Z,1.30
2022-10-02T04:23:38.731Z,1.87
2022-10-02T04:26:25.127Z,1.20
2022-10-02T04:29:01.295Z,1.10
2022-10-02T04:31:29.520Z,1.17
2022-10-02T04:34:02.936Z,1.10
2022-10-02T04:36:50.209Z,1.13
2022-10-02T04:39:44.584Z,1.10
2022-10-02T04:42:41.765Z,1.30
2022-10-02T04:45:52.970Z,1.27
2022-10-02T04:49:03.970Z,1.40
2022-10-02T04:51:52.660Z,1.70
2022-10-02T04:54:38.518Z,1.33
2022-10-02T04:57:24.853Z,1.40
2022-10-02T05:00:15.198Z,1.10
2022-10-02T05:03:17.880Z,1.30
2022-10-02T05:06:11.019Z,1.30
2022-10-02T05:09:29.052Z,1.47
2022-10-02T05:12:24.791Z,1.37
2022-10-02T05:15:31.010Z,1.10
2022-10-02T05:18:39.160Z,1.50
2022-10-02T05:21:36.979Z,1.20
2022-10-02T05:24:16.443Z,1.10
2022-10-02T05:26:49.666Z,1.33
2022-10-02T05:29:58.938Z,0.90
2022-10-02T05:32:37.815Z,1.10
2022-10-02T05:35:26.316Z,1.27
2022-10-02T05:38:10.808Z,1.30
2022-10-02T05:41:29.816Z,1.00
2022-10-02T05:44:27.393Z,1.40
2022-10-02T05:47:46.003Z,1.17
2022-10-02T05:50:19.133Z,1.00
2022-10-02T05:53:25.146Z,1.10
2022-10-02T05:56:22.805Z,1.10
2022-10-02T05:59:22.863Z,1.30
2022-10-02T06:01:51.264Z,1.50
2022-10-02T06:04:39.801Z,0.80
2022-10-02T06:07:17.969Z,1.10
2022-10-02T06:10:01.897Z,1.07
2022-10-02T06:12:42.189Z,1.20
2022-10-02T06:15:57.687Z,1.10
2022-10-02T06:18:31.608Z,1.43
2022-10-02T06:21:23.891Z,2.00
2022-10-02T06:23:56.498Z,1.33
2022-10-02T06:26:52.235Z,1.67
2022-10-02T06:29:46.997Z,1.70
2022-10-02T06:32:30.423Z,1.57
2022-10-02T06:34:57.959Z,1.40
2022-10-02T06:38:04.865Z,1.50
2022-10-02T06:41:01.143Z,2.40
2022-10-02T06:44:03.723Z,1.70
2022-10-02T06:46:43.611Z,1.30
2022-10-02T06:49:46.516Z,1.80
2022-10-02T06:52:38.417Z,1.50
2022-10-02T06:55:52.416Z,1.70
2022-10-02T06:59:14.920Z,1.73
2022-10-02T07:08:38.020Z,1.40
2022-10-02T07:11:26.559Z,1.40
2022-10-02T07:14:47.792Z,1.20
2022-10-02T07:17:23.740Z,1.30
2022-10-02T07:20:05.740Z,1.30
2022-10-02T07:23:01.360Z,1.10
2022-10-02T07:26:11.466Z,1.37
2022-10-02T07:28:54.722Z,1.20
2022-10-02T07:31:59.124Z,1.20
2022-10-02T07:35:11.189Z,1.20
2022-10-02T07:38:21.876Z,1.20
2022-10-02T07:41:13.135Z,1.37
2022-10-02T07:43:53.498Z,1.10
2022-10-02T07:46:34.180Z,1.40
2022-10-02T07:49:07.907Z,2.07
2022-10-02T07:52:22.574Z,1.40
2022-10-02T07:55:02.187Z,1.40
2022-10-02T07:57:52.374Z,1.20
2022-10-02T08:00:25.537Z,1.00
2022-10-02T08:03:02.738Z,1.30
2022-10-02T08:05:42.829Z,1.23
2022-10-02T08:08:33.925Z,1.30
2022-10-02T08:11:13.442Z,1.70
2022-10-02T08:13:55.399Z,1.20
2022-10-02T08:16:29.473Z,1.23
2022-10-02T08:19:07.538Z,1.40
2022-10-02T08:21:49.531Z,1.23
2022-10-02T08:24:40.979Z,1.53
2022-10-02T08:27:43.042Z,1.10
2022-10-02T08:30:14.533Z,1.10
2022-10-02T08:32:43.829Z,1.40
2022-10-02T08:35:19.852Z,1.37
2022-10-02T08:38:33.128Z,1.10
2022-10-02T08:41:18.695Z,1.30
2022-10-02T08:44:04.816Z,1.30
2022-10-02T08:47:15.355Z,1.30
2022-10-02T08:50:31.190Z,1.10
2022-10-02T08:53:31.679Z,0.87
2022-10-02T08:56:12.959Z,0.90
2022-10-02T08:58:59.863Z,0.87
2022-10-02T09:01:50.204Z,1.10
2022-10-02T09:04:40.718Z,1.00
2022-10-02T09:08:08.107Z,1.00
2022-10-02T09:11:15.592Z,1.00
2022-10-02T09:14:12.769Z,0.97
2022-10-02T09:17:35.358Z,1.50
2022-10-02T09:20:13.915Z,1.30
2022-10-02T09:22:55.997Z,1.10
2022-10-02T09:26:12.826Z,1.37
2022-10-02T09:29:37.110Z,1.40
2022-10-02T09:32:34.724Z,0.87
2022-10-02T09:35:27.121Z,0.80
2022-10-02T09:39:00.237Z,0.83
2022-10-02T09:42:08.735Z,0.80
2022-10-02T09:45:01.771Z,1.27
2022-10-02T09:47:58.111Z,0.73
2022-10-02T09:51:26.312Z,0.60
2022-10-02T09:54:32.686Z,0.77
2022-10-02T09:57:27.752Z,0.70
2022-10-02T10:00:27.244Z,0.90
2022-10-02T10:03:44.697Z,0.70
2022-10-02T10:06:32.889Z,0.60
2022-10-02T10:09:50.618Z,0.53
2022-10-02T10:13:10.852Z,0.73
2022-10-02T10:16:30.720Z,0.67
2022-10-02T10:19:38.759Z,0.53
2022-10-02T10:22:38.949Z,0.67
2022-10-02T10:25:33.032Z,0.40
2022-10-02T10:28:33.821Z,0.50
2022-10-02T10:31:38.473Z,0.30
2022-10-02T10:34:46.600Z,0.60
2022-10-02T10:38:07.107Z,0.93
2022-10-02T10:41:25.164Z,0.50
2022-10-02T10:44:11.416Z,0.50
2022-10-02T10:46:59.504Z,0.53
2022-10-02T10:49:53.229Z,0.47
2022-10-02T10:52:54.997Z,0.80
2022-10-02T10:55:46.142Z,0.57
2022-10-02T10:58:30.136Z,0.50
2022-10-02T11:01:21.792Z,0.88
2022-10-02T11:04:22.060Z,0.50
2022-10-02T11:07:35.192Z,0.68
2022-10-02T11:10:38.017Z,0.88
2022-10-02T11:13:33.694Z,0.45
2022-10-02T11:16:41.362Z,0.63
2022-10-02T11:19:49.426Z,0.60
2022-10-02T11:22:38.513Z,0.50
2022-10-02T11:25:33.766Z,0.35
2022-10-02T11:28:42.295Z,0.60
2022-10-02T11:31:56.108Z,0.65
2022-10-02T11:34:39.335Z,0.55
2022-10-02T11:37:27.891Z,1.52
2022-10-02T11:40:27.399Z,0.70
2022-10-02T11:43:13.899Z,0.70
2022-10-02T11:46:33.605Z,0.40
2022-10-02T11:49:08.792Z,0.35
2022-10-02T11:52:04.322Z,0.43
2022-10-02T11:55:22.392Z,0.35
2022-10-02T11:58:18.028Z,0.40
2022-10-02T12:01:43.126Z,0.43
2022-10-02T12:04:32.436Z,0.35
2022-10-02T12:07:00.817Z,0.50
2022-10-02T12:10:12.763Z,0.47
2022-10-02T12:12:52.093Z,0.40
2022-10-02T12:15:52.634Z,0.50
2022-10-02T12:18:47.881Z,0.45
2022-10-02T12:21:33.930Z,0.50
2022-10-02T12:24:54.835Z,0.45
2022-10-02T12:27:52.643Z,0.30
2022-10-02T12:30:45.675Z,0.30
2022-10-02T12:33:37.600Z,0.45
2022-10-02T12:36:34.688Z,0.50
2022-10-02T12:39:22.143Z,0.30
2022-10-02T12:42:52.021Z,0.32
2022-10-02T12:45:34.216Z,0.45
2022-10-02T12:48:45.902Z,0.50
2022-10-02T12:51:55.998Z,0.38
2022-10-02T12:55:06.187Z,0.32
2022-10-02T12:58:10.667Z,0.50
2022-10-02T13:01:21.557Z,0.50
2022-10-02T13:03:55.402Z,0.40
2022-10-02T13:06:45.819Z,0.50
2022-10-02T13:09:29.876Z,0.68
2022-10-02T13:12:26.052Z,0.60
2022-10-02T13:15:46.195Z,0.80
2022-10-02T13:18:47.664Z,0.35
2022-10-02T13:21:32.818Z,0.40
2022-10-02T13:24:36.451Z,0.40
2022-10-02T13:27:31.764Z,0.70
2022-10-02T13:30:14.084Z,0.40
2022-10-02T13:33:27.237Z,0.55
2022-10-02T13:36:33.916Z,0.40
2022-10-02T13:39:28.214Z,0.52
2022-10-02T13:42:37.309Z,0.30
2022-10-02T13:45:31.159Z,0.40
2022-10-02T13:48:55.034Z,0.50
2022-10-02T13:51:55.125Z,0.50
2022-10-02T13:54:56.962Z,0.30
2022-10-02T13:58:01.461Z,0.45
2022-10-02T14:00:37.869Z,0.50
2022-10-02T14:03:27.064Z,0.57
2022-10-02T14:06:26.516Z,0.50
2022-10-02T14:09:12.090Z,0.40
2022-10-02T14:12:03.963Z,0.30
2022-10-02T14:14:58.907Z,0.73
2022-10-02T14:18:03.207Z,0.52
2022-10-02T14:21:13.501Z,0.65
2022-10-02T14:24:23.013Z,0.40
2022-10-02T14:27:23.382Z,0.30
2022-10-02T14:30:06.388Z,0.47
2022-10-02T14:33:08.543Z,0.30
2022-10-02T14:36:07.192Z,0.50
2022-10-02T14:39:05.581Z,0.40
2022-10-02T14:41:51.829Z,0.30
2022-10-02T14:45:13.527Z,0.47
2022-10-02T14:48:11.626Z,0.38
2022-10-02T14:51:23.923Z,0.32
2022-10-02T14:55:06.431Z,0.40
2022-10-02T14:57:52.504Z,0.60
2022-10-02T15:00:23.706Z,0.43
2022-10-02T15:03:03.277Z,0.50
2022-10-02T15:05:51.141Z,0.75
2022-10-02T15:08:33.781Z,0.50
2022-10-02T15:11:01.694Z,0.60
2022-10-02T15:14:00.197Z,0.60
2022-10-02T15:17:00.451Z,1.38
2022-10-02T15:20:19.745Z,0.50
2022-10-02T15:23:00.792Z,0.70
2022-10-02T15:26:24.238Z,0.85
2022-10-02T15:29:35.712Z,0.73
2022-10-02T15:32:39.726Z,0.80
2022-10-02T15:35:40.586Z,1.30
2022-10-02T15:38:29.062Z,1.20
2022-10-02T15:41:33.573Z,1.20
2022-10-02T15:44:09.882Z,1.83
2022-10-02T15:46:58.343Z,2.20
2022-10-02T15:50:22.429Z,1.65
2022-10-02T15:53:47.384Z,1.58
2022-10-02T15:56:33.565Z,2.10
2022-10-02T15:59:48.329Z,2.33
2022-10-02T16:02:39.063Z,2.42
2022-10-02T16:05:42.691Z,3.20
2022-10-02T16:08:24.268Z,2.20
2022-10-02T16:11:34.912Z,0.85
2022-10-02T16:14:32.418Z,3.05
2022-10-02T16:17:31.602Z,1.30
2022-10-02T16:23:35.746Z,1.15
2022-10-02T16:29:43.727Z,1.17
2022-10-02T16:32:43.310Z,1.00
2022-10-02T16:36:10.680Z,1.70
2022-10-02T16:39:05.455Z,22.03
2022-10-02T16:41:42.082Z,6.50
2022-10-02T16:44:46.086Z,2.80
2022-10-02T16:48:02.221Z,1.23
2022-10-02T16:50:53.300Z,1.40
2022-10-02T16:53:35.328Z,1.30
2022-10-02T17:00:50.665Z,2.23
2022-10-02T17:16:20.930Z,1.13
2022-10-02T17:37:13.187Z,1.20
2022-10-02T17:39:58.041Z,1.33
2022-10-02T17:43:09.591Z,1.47
2022-10-02T17:46:05.667Z,2.67
2022-10-02T17:48:56.174Z,2.13
2022-10-02T17:52:20.086Z,2.37
2022-10-02T17:55:42.747Z,2.33
2022-10-02T17:58:39.696Z,2.00
2022-10-02T18:01:59.303Z,1.30
2022-10-02T18:04:49.514Z,1.10
2022-10-02T18:07:44.222Z,1.50
2022-10-02T18:11:08.823Z,1.30
2022-10-02T18:14:03.491Z,1.13
2022-10-02T18:16:52.348Z,1.00
2022-10-02T18:19:35.407Z,1.60
2022-10-02T18:23:16.044Z,1.17
2022-10-02T18:26:14.400Z,1.20
2022-10-02T18:29:00.672Z,1.30
2022-10-02T18:32:04.457Z,1.07
2022-10-02T18:35:15.547Z,0.80
2022-10-02T18:38:06.461Z,0.83
2022-10-02T18:41:16.554Z,1.20
2022-10-02T18:44:12.365Z,0.80
2022-10-02T18:46:51.889Z,1.03
2022-10-02T18:49:48.240Z,1.07
2022-10-02T18:52:47.284Z,1.60
2022-10-02T18:55:28.929Z,1.00
2022-10-02T18:58:17.465Z,0.90
2022-10-02T19:01:15.718Z,0.90
2022-10-02T19:04:06.837Z,0.90
2022-10-02T19:06:54.149Z,0.90
2022-10-02T19:09:28.790Z,0.77
2022-10-02T19:12:05.244Z,0.93
2022-10-02T19:14:42.659Z,1.00
2022-10-02T19:17:27.539Z,1.00
2022-10-02T19:19:58.209Z,1.20
2022-10-02T19:22:32.822Z,0.90
2022-10-02T19:25:16.285Z,0.90
2022-10-02T19:27:54.533Z,1.20
2022-10-02T19:30:34.441Z,0.90
2022-10-02T19:33:09.196Z,1.10
2022-10-02T19:35:44.640Z,1.13
2022-10-02T19:38:33.404Z,1.03
2022-10-02T19:41:09.865Z,0.83
2022-10-02T19:43:59.456Z,1.00
2022-10-02T19:46:47.235Z,0.77
2022-10-02T19:49:25.456Z,0.60
2022-10-02T19:51:54.996Z,0.80
2022-10-02T19:54:38.434Z,0.90
2022-10-02T19:57:16.738Z,0.70
2022-10-02T19:59:53.436Z,1.00
2022-10-02T20:02:36.253Z,1.07
2022-10-02T20:05:09.138Z,0.93
2022-10-02T20:07:41.190Z,0.80
2022-10-02T20:10:35.062Z,0.60
2022-10-02T20:13:24.635Z,0.67
2022-10-02T20:16:31.343Z,0.83
2022-10-02T20:18:58.999Z,0.70
2022-10-02T20:21:53.150Z,1.50
2022-10-02T20:24:51.787Z,0.90
2022-10-02T20:27:33.255Z,1.00
2022-10-02T20:30:17.205Z,0.80
2022-10-02T20:33:06.694Z,1.90
2022-10-02T20:35:48.660Z,1.33
2022-10-02T20:39:01.453Z,0.97
2022-10-02T20:41:45.252Z,0.90
2022-10-02T20:44:13.195Z,0.80
2022-10-02T20:47:35.616Z,0.90
2022-10-02T20:50:27.565Z,1.00
2022-10-02T20:53:26.023Z,1.50
2022-10-02T20:56:25.906Z,1.50
2022-10-02T20:59:39.799Z,1.30
2022-10-02T21:03:04.859Z,1.20
2022-10-02T21:05:39.137Z,0.80
2022-10-02T21:08:34.767Z,0.83
2022-10-02T21:11:37.567Z,0.80
2022-10-02T21:14:22.050Z,0.87
2022-10-02T21:17:17.602Z,0.97
2022-10-02T21:20:49.587Z,0.70
2022-10-02T21:23:52.611Z,0.87
2022-10-02T21:26:47.366Z,0.60
2022-10-02T21:29:15.537Z,0.63
2022-10-02T21:32:11.503Z,0.80
2022-10-02T21:35:16.753Z,0.63
2022-10-02T21:38:23.650Z,0.60
2022-10-02T21:41:40.639Z,1.10
2022-10-02T21:44:32.585Z,0.90
2022-10-02T21:47:51.961Z,0.90
2022-10-02T21:50:56.882Z,0.83
2022-10-02T21:53:59.883Z,0.80
2022-10-02T21:56:54.758Z,0.90
2022-10-02T21:59:41.191Z,0.80
2022-10-02T22:02:36.384Z,0.70
2022-10-02T22:05:37.596Z,0.80
2022-10-02T22:08:39.080Z,0.90
2022-10-02T22:11:24.877Z,0.80
2022-10-02T22:14:00.460Z,0.70
2022-10-02T22:16:28.009Z,0.60
2022-10-02T22:19:10.188Z,0.70
2022-10-02T22:22:05.175Z,0.80
2022-10-02T22:24:53.697Z,1.13
2022-10-02T22:27:50.030Z,0.77
2022-10-02T22:30:27.685Z,0.70
2022-10-02T22:33:40.754Z,0.90
2022-10-02T22:36:37.846Z,0.90
2022-10-02T22:39:33.096Z,0.90
2022-10-02T22:42:08.384Z,0.67
2022-10-02T22:45:16.634Z,0.80
2022-10-02T22:48:04.387Z,0.80
2022-10-02T22:50:48.211Z,0.90
2022-10-02T22:53:37.877Z,0.80
2022-10-02T22:56:39.733Z,0.97
2022-10-02T22:59:23.184Z,1.20
2022-10-02T23:02:04.580Z,0.77
2022-10-02T23:04:52.496Z,0.70
2022-10-02T23:08:11.697Z,0.70
2022-10-02T23:10:39.135Z,0.80
2022-10-02T23:13:35.617Z,0.70
2022-10-02T23:16:51.771Z,0.87
2022-10-02T23:19:42.389Z,0.80
2022-10-02T23:22:21.308Z,0.80
2022-10-02T23:25:29.302Z,0.80
2022-10-02T23:31:14.189Z,0.70
2022-10-02T23:34:11.489Z,0.90
2022-10-02T23:36:47.412Z,0.90
2022-10-02T23:39:29.866Z,0.70
2022-10-02T23:42:00.120Z,0.80
2022-10-02T23:44:44.331Z,1.00
2022-10-02T23:47:29.693Z,1.00
2022-10-02T23:49:59.547Z,0.77
2022-10-02T23:52:51.141Z,0.80
2022-10-02T23:55:37.472Z,0.83
2022-10-02T23:58:22.724Z,0.83
